Terminal Aerodrome Forecast
Issued by NWS St Louis, MO

Home | Current Version | Previous Version | Graphics & Text | Print | Product List | Glossary On
Versions: 1 2 3 4 5 6 7 8 9 10 11 12 13 14 15 16 17 18 19 20 21 22 23
000
FTUS43 KLSX 300854 AAA
TAFSTL
TAF AMD
KSTL 300854Z 3009/0112 35009KT P6SM BKN012
     FM300930 35009KT P6SM BKN008
     FM301500 34009KT P6SM BKN015
     FM302000 33009KT P6SM VCSH BKN025
     FM010100 33005KT P6SM BKN020
     FM010600 32005KT P6SM BKN008=

USA.gov is the U.S. government's official web portal to all federal, state and local government web resources and services.